Pires Coelho — CUPM6 — position and weather

sailwx.info

Track history (hours):
 
Tides and Currents Weather Stations Pressure Air Temp Water Temp Dewpoint Dewpoint Depression Visibility Wind Speed Wind Dir Waves Ship Positions

Pires Coelho

Last reported at 2015-Mar-26 18:32 UTC. Time now 2015-Mar-27 08:10 UTC.
Position N 36°51' W 008°04'.

Length 27 m.

Type: Ship. MMSI: 263236000.

Date/timePositionNaut miles runAvg speedWind from/ knotsBaromVisibWave heightAir tempDewpointWater temp
2015-Mar-26 18:32N 36°51' W 008°04'3 3.0
2015-Mar-26 17:25N 36°51' W 007°60'5 0.9
2015-Mar-26 11:31N 36°49' W 008°05'3 0.2
2015-Mar-25 17:22N 36°50' W 008°02'3 0.4
2015-Mar-25 10:06N 36°52' W 008°05'2 2.7
2015-Mar-25 09:16N 36°51' W 008°02'2 3.0
2015-Mar-25 08:32N 36°51' W 007°60'13 3.2
2015-Mar-25 04:33N 36°59' W 008°12'1010.0
2015-Mar-25 03:33N 37°03' W 008°23'8 7.2
2015-Mar-25 02:25N 37°08' W 008°32'0 0.0
2015-Mar-25 01:26N 37°08' W 008°32'0 0.0
2015-Mar-25 00:33N 37°08' W 008°32'0 0.0
2015-Mar-24 23:25N 37°08' W 008°32'0 0.0
2015-Mar-24 22:33N 37°08' W 008°32'0 0.0
2015-Mar-24 21:16N 37°08' W 008°32'0 0.1
2015-Mar-24 20:32N 37°08' W 008°32'6 5.9
2015-Mar-24 19:33N 37°02' W 008°32'9 9.5
2015-Mar-24 18:34N 36°53' W 008°31'3 3.4
2015-Mar-24 17:33N 36°49' W 008°31'3 3.0
2015-Mar-24 16:33N 36°50' W 008°27'3 2.9
2015-Mar-24 15:31N 36°50' W 008°23'2 1.6
2015-Mar-24 14:33N 36°50' W 008°21'3 3.0
2015-Mar-24 13:33N 36°50' W 008°18'3 3.1
2015-Mar-24 12:32N 36°49' W 008°14'3 3.0
2015-Mar-24 11:33N 36°49' W 008°10'3 2.5
2015-Mar-24 10:29N 36°49' W 008°07'3 3.0
2015-Mar-24 09:33N 36°50' W 008°03'27 1.9
2015-Mar-23 19:15N 36°49' W 008°37'3 4.1
2015-Mar-23 18:33N 36°50' W 008°40'3 3.0
2015-Mar-23 17:33N 36°51' W 008°44'6 0.8
2015-Mar-23 10:17N 36°51' W 008°51'14 2.4
2015-Mar-23 04:27N 37°01' W 008°39'6 7.0
2015-Mar-23 03:33N 37°05' W 008°33'3 2.6
2015-Mar-23 02:26N 37°08' W 008°32'0 0.0
2015-Mar-23 01:25N 37°08' W 008°32'0 0.0
2015-Mar-23 00:27N 37°08' W 008°32'0 0.0
2015-Mar-22 23:31N 37°08' W 008°32'0 0.0
2015-Mar-22 22:24N 37°08' W 008°32'0 0.0
2015-Mar-22 21:33N 37°08' W 008°32'0 0.0
2015-Mar-22 20:32N 37°08' W 008°32'0 0.0
2015-Mar-22 19:18N 37°08' W 008°32'0 0.1
2015-Mar-22 18:16N 37°08' W 008°32'6 8.6
2015-Mar-22 17:33N 37°03' W 008°36'1010.0
2015-Mar-22 16:33N 36°56' W 008°45'7 6.7
2015-Mar-22 15:30N 36°51' W 008°51'14 0.4
2015-Mar-20 23:16N 36°56' W 009°08'2 2.9
2015-Mar-20 22:32N 36°54' W 009°08'14 3.5
2015-Mar-20 18:32N 36°52' W 008°50'1 0.1
2015-Mar-20 14:31N 36°52' W 008°51'10 0.6
2015-Mar-19 21:22N 37°01' W 008°55'0 0.3
2015-Mar-19 20:32N 37°01' W 008°56'10 1.1
2015-Mar-19 11:26N 36°51' W 008°51'8 0.5
2015-Mar-18 19:17N 36°51' W 008°41'1 1.8
2015-Mar-18 18:30N 36°51' W 008°39'3 2.9
2015-Mar-18 17:34N 36°50' W 008°36'1 0.8
2015-Mar-18 16:33N 36°49' W 008°36'3 2.5
2015-Mar-18 15:33N 36°51' W 008°38'2 2.2
2015-Mar-18 14:33N 36°53' W 008°38'2 1.8
2015-Mar-18 13:33N 36°51' W 008°39'3 2.5
2015-Mar-18 12:33N 36°49' W 008°37'2 1.7
2015-Mar-18 11:31N 36°48' W 008°35'1 1.4
2015-Mar-18 10:33N 36°48' W 008°37'3 2.5
2015-Mar-18 09:10N 36°49' W 008°41'5 2.9
2015-Mar-18 07:32N 36°48' W 008°35'2 1.8
2015-Mar-18 06:33N 36°47' W 008°36'2 2.0
2015-Mar-18 05:32N 36°46' W 008°38'6 2.7
2015-Mar-18 03:18N 36°47' W 008°46'2 3.0
2015-Mar-18 02:32N 36°50' W 008°45'13 6.3
2015-Mar-18 00:32N 37°01' W 008°37'9 6.8
2015-Mar-17 23:17N 37°08' W 008°32'0 0.0
2015-Mar-17 22:33N 37°08' W 008°32'3 3.0
2015-Mar-17 21:33N 37°05' W 008°31'10 9.9
2015-Mar-17 20:33N 36°57' W 008°24'10 9.7
2015-Mar-17 19:33N 36°50' W 008°16'4 1.7
2015-Mar-17 17:17N 36°48' W 008°21'3 2.9
2015-Mar-17 16:07N 36°48' W 008°25'1 2.4
2015-Mar-17 15:33N 36°48' W 008°26'5 2.4
2015-Mar-17 13:33N 36°48' W 008°20'3 2.9
2015-Mar-17 12:32N 36°48' W 008°17'3 3.1
2015-Mar-17 11:32N 36°48' W 008°13'2 1.6
2015-Mar-17 10:33N 36°49' W 008°11'3 2.9
2015-Mar-17 09:30N 36°50' W 008°07'3 3.0
2015-Mar-17 08:27N 36°51' W 008°04'3 3.2
2015-Mar-17 07:33N 36°51' W 008°00'  
Track history (hours):
 
Tides and Currents Weather Stations Pressure Air Temp Water Temp Dewpoint Dewpoint Depression Visibility Wind Speed Wind Dir Waves Ship Positions

Pires Coelho

Last reported at 2015-Mar-26 18:32 UTC. Time now 2015-Mar-27 08:10 UTC.
Position N 36°51' W 008°04'.

Length 27 m.

Type: Ship. MMSI: 263236000.

Date/timePositionNaut miles runAvg speedWind from/ knotsBaromVisibWave heightAir tempDewpointWater temp
2015-Mar-26 18:32N 36°51' W 008°04'3 3.0
2015-Mar-26 17:25N 36°51' W 007°60'5 0.9
2015-Mar-26 11:31N 36°49' W 008°05'3 0.2
2015-Mar-25 17:22N 36°50' W 008°02'3 0.4
2015-Mar-25 10:06N 36°52' W 008°05'2 2.7
2015-Mar-25 09:16N 36°51' W 008°02'2 3.0
2015-Mar-25 08:32N 36°51' W 007°60'13 3.2
2015-Mar-25 04:33N 36°59' W 008°12'1010.0
2015-Mar-25 03:33N 37°03' W 008°23'8 7.2
2015-Mar-25 02:25N 37°08' W 008°32'0 0.0
2015-Mar-25 01:26N 37°08' W 008°32'0 0.0
2015-Mar-25 00:33N 37°08' W 008°32'0 0.0
2015-Mar-24 23:25N 37°08' W 008°32'0 0.0
2015-Mar-24 22:33N 37°08' W 008°32'0 0.0
2015-Mar-24 21:16N 37°08' W 008°32'0 0.1
2015-Mar-24 20:32N 37°08' W 008°32'6 5.9
2015-Mar-24 19:33N 37°02' W 008°32'9 9.5
2015-Mar-24 18:34N 36°53' W 008°31'3 3.4
2015-Mar-24 17:33N 36°49' W 008°31'3 3.0
2015-Mar-24 16:33N 36°50' W 008°27'3 2.9
2015-Mar-24 15:31N 36°50' W 008°23'2 1.6
2015-Mar-24 14:33N 36°50' W 008°21'3 3.0
2015-Mar-24 13:33N 36°50' W 008°18'3 3.1
2015-Mar-24 12:32N 36°49' W 008°14'3 3.0
2015-Mar-24 11:33N 36°49' W 008°10'3 2.5
2015-Mar-24 10:29N 36°49' W 008°07'3 3.0
2015-Mar-24 09:33N 36°50' W 008°03'27 1.9
2015-Mar-23 19:15N 36°49' W 008°37'3 4.1
2015-Mar-23 18:33N 36°50' W 008°40'3 3.0
2015-Mar-23 17:33N 36°51' W 008°44'6 0.8
2015-Mar-23 10:17N 36°51' W 008°51'14 2.4
2015-Mar-23 04:27N 37°01' W 008°39'6 7.0
2015-Mar-23 03:33N 37°05' W 008°33'3 2.6
2015-Mar-23 02:26N 37°08' W 008°32'0 0.0
2015-Mar-23 01:25N 37°08' W 008°32'0 0.0
2015-Mar-23 00:27N 37°08' W 008°32'0 0.0
2015-Mar-22 23:31N 37°08' W 008°32'0 0.0
2015-Mar-22 22:24N 37°08' W 008°32'0 0.0
2015-Mar-22 21:33N 37°08' W 008°32'0 0.0
2015-Mar-22 20:32N 37°08' W 008°32'0 0.0
2015-Mar-22 19:18N 37°08' W 008°32'0 0.1
2015-Mar-22 18:16N 37°08' W 008°32'6 8.6
2015-Mar-22 17:33N 37°03' W 008°36'1010.0
2015-Mar-22 16:33N 36°56' W 008°45'7 6.7
2015-Mar-22 15:30N 36°51' W 008°51'14 0.4
2015-Mar-20 23:16N 36°56' W 009°08'2 2.9
2015-Mar-20 22:32N 36°54' W 009°08'14 3.5
2015-Mar-20 18:32N 36°52' W 008°50'1 0.1
2015-Mar-20 14:31N 36°52' W 008°51'10 0.6
2015-Mar-19 21:22N 37°01' W 008°55'0 0.3
2015-Mar-19 20:32N 37°01' W 008°56'10 1.1
2015-Mar-19 11:26N 36°51' W 008°51'8 0.5
2015-Mar-18 19:17N 36°51' W 008°41'1 1.8
2015-Mar-18 18:30N 36°51' W 008°39'3 2.9
2015-Mar-18 17:34N 36°50' W 008°36'1 0.8
2015-Mar-18 16:33N 36°49' W 008°36'3 2.5
2015-Mar-18 15:33N 36°51' W 008°38'2 2.2
2015-Mar-18 14:33N 36°53' W 008°38'2 1.8
2015-Mar-18 13:33N 36°51' W 008°39'3 2.5
2015-Mar-18 12:33N 36°49' W 008°37'2 1.7
2015-Mar-18 11:31N 36°48' W 008°35'1 1.4
2015-Mar-18 10:33N 36°48' W 008°37'3 2.5
2015-Mar-18 09:10N 36°49' W 008°41'5 2.9
2015-Mar-18 07:32N 36°48' W 008°35'2 1.8
2015-Mar-18 06:33N 36°47' W 008°36'2 2.0
2015-Mar-18 05:32N 36°46' W 008°38'6 2.7
2015-Mar-18 03:18N 36°47' W 008°46'2 3.0
2015-Mar-18 02:32N 36°50' W 008°45'13 6.3
2015-Mar-18 00:32N 37°01' W 008°37'9 6.8
2015-Mar-17 23:17N 37°08' W 008°32'0 0.0
2015-Mar-17 22:33N 37°08' W 008°32'3 3.0
2015-Mar-17 21:33N 37°05' W 008°31'10 9.9
2015-Mar-17 20:33N 36°57' W 008°24'10 9.7
2015-Mar-17 19:33N 36°50' W 008°16'4 1.7
2015-Mar-17 17:17N 36°48' W 008°21'3 2.9
2015-Mar-17 16:07N 36°48' W 008°25'1 2.4
2015-Mar-17 15:33N 36°48' W 008°26'5 2.4
2015-Mar-17 13:33N 36°48' W 008°20'3 2.9
2015-Mar-17 12:32N 36°48' W 008°17'3 3.1
2015-Mar-17 11:32N 36°48' W 008°13'2 1.6
2015-Mar-17 10:33N 36°49' W 008°11'3 2.9
2015-Mar-17 09:30N 36°50' W 008°07'3 3.0
2015-Mar-17 08:27N 36°51' W 008°04'3 3.2
2015-Mar-17 07:33N 36°51' W 008°00'  

Dump ship's entire track history